sensor_id;sensor_type;location;lat;lon;timestamp;temperature;humidity
3925;DHT22;1977;52.274;10.518;2023-07-22T00:02:17;19.40;99.50
3925;DHT22;1977;52.274;10.518;2023-07-22T00:04:44;19.30;99.70
3925;DHT22;1977;52.274;10.518;2023-07-22T00:07:11;19.20;99.80
3925;DHT22;1977;52.274;10.518;2023-07-22T00:09:38;19.20;99.90
3925;DHT22;1977;52.274;10.518;2023-07-22T00:12:07;19.10;99.90
3925;DHT22;1977;52.274;10.518;2023-07-22T00:14:40;19.00;99.90
3925;DHT22;1977;52.274;10.518;2023-07-22T00:17:07;18.90;99.90
3925;DHT22;1977;52.274;10.518;2023-07-22T00:19:34;18.90;99.90
3925;DHT22;1977;52.274;10.518;2023-07-22T00:22:02;18.80;99.90
3925;DHT22;1977;52.274;10.518;2023-07-22T00:24:29;18.80;99.90
3925;DHT22;1977;52.274;10.518;2023-07-22T00:26:55;18.70;99.90
3925;DHT22;1977;52.274;10.518;2023-07-22T00:29:22;18.70;99.90
3925;DHT22;1977;52.274;10.518;2023-07-22T00:31:50;18.70;99.90
3925;DHT22;1977;52.274;10.518;2023-07-22T00:34:17;18.60;99.90
3925;DHT22;1977;52.274;10.518;2023-07-22T00:36:45;18.70;99.90
3925;DHT22;1977;52.274;10.518;2023-07-22T00:39:12;18.50;99.90
3925;DHT22;1977;52.274;10.518;2023-07-22T00:41:40;18.50;99.90
3925;DHT22;1977;52.274;10.518;2023-07-22T00:44:09;18.60;99.90
3925;DHT22;1977;52.274;10.518;2023-07-22T00:46:36;18.40;99.90
3925;DHT22;1977;52.274;10.518;2023-07-22T00:49:05;18.40;99.90
3925;DHT22;1977;52.274;10.518;2023-07-22T00:51:32;18.30;99.90
3925;DHT22;1977;52.274;10.518;2023-07-22T00:53:59;18.30;99.90
3925;DHT22;1977;52.274;10.518;2023-07-22T00:56:25;18.30;99.90
3925;DHT22;1977;52.274;10.518;2023-07-22T00:58:52;18.30;99.90
3925;DHT22;1977;52.274;10.518;2023-07-22T01:01:19;18.20;99.90
3925;DHT22;1977;52.274;10.518;2023-07-22T01:03:46;18.20;99.90
3925;DHT22;1977;52.274;10.518;2023-07-22T01:06:14;18.10;99.90
3925;DHT22;1977;52.274;10.518;2023-07-22T01:08:42;18.10;99.90
3925;DHT22;1977;52.274;10.518;2023-07-22T01:11:09;18.10;99.90
3925;DHT22;1977;52.274;10.518;2023-07-22T01:13:36;18.10;99.90
3925;DHT22;1977;52.274;10.518;2023-07-22T01:16:03;18.10;99.90
3925;DHT22;1977;52.274;10.518;2023-07-22T01:18:30;18.10;99.90
3925;DHT22;1977;52.274;10.518;2023-07-22T01:20:57;18.10;99.90
3925;DHT22;1977;52.274;10.518;2023-07-22T01:23:25;18.00;99.90
3925;DHT22;1977;52.274;10.518;2023-07-22T01:25:52;18.00;99.90
3925;DHT22;1977;52.274;10.518;2023-07-22T01:28:21;18.00;99.90
3925;DHT22;1977;52.274;10.518;2023-07-22T01:30:47;18.00;99.90
3925;DHT22;1977;52.274;10.518;2023-07-22T01:33:15;18.00;99.90
3925;DHT22;1977;52.274;10.518;2023-07-22T01:35:42;17.90;99.90
3925;DHT22;1977;52.274;10.518;2023-07-22T01:38:08;17.90;99.90
3925;DHT22;1977;52.274;10.518;2023-07-22T01:40:36;17.90;99.90
3925;DHT22;1977;52.274;10.518;2023-07-22T01:43:03;17.90;99.90
3925;DHT22;1977;52.274;10.518;2023-07-22T01:45:30;17.90;99.90
3925;DHT22;1977;52.274;10.518;2023-07-22T01:47:57;17.90;99.90
3925;DHT22;1977;52.274;10.518;2023-07-22T01:50:24;17.90;99.90
3925;DHT22;1977;52.274;10.518;2023-07-22T01:52:51;17.90;99.90
3925;DHT22;1977;52.274;10.518;2023-07-22T01:55:18;17.90;99.90
3925;DHT22;1977;52.274;10.518;2023-07-22T01:57:46;17.90;99.90
3925;DHT22;1977;52.274;10.518;2023-07-22T02:00:13;17.90;99.90
3925;DHT22;1977;52.274;10.518;2023-07-22T02:02:41;17.80;99.90
3925;DHT22;1977;52.274;10.518;2023-07-22T02:05:08;17.80;99.90
3925;DHT22;1977;52.274;10.518;2023-07-22T02:07:35;17.80;99.90
3925;DHT22;1977;52.274;10.518;2023-07-22T02:10:03;17.80;99.90
3925;DHT22;1977;52.274;10.518;2023-07-22T02:12:30;17.80;99.90
3925;DHT22;1977;52.274;10.518;2023-07-22T02:14:58;17.80;99.90
3925;DHT22;1977;52.274;10.518;2023-07-22T02:17:25;17.70;99.90
3925;DHT22;1977;52.274;10.518;2023-07-22T02:19:52;17.70;99.90
3925;DHT22;1977;52.274;10.518;2023-07-22T02:22:19;17.70;99.90
3925;DHT22;1977;52.274;10.518;2023-07-22T02:24:46;17.80;99.90
3925;DHT22;1977;52.274;10.518;2023-07-22T02:27:12;17.70;99.90
3925;DHT22;1977;52.274;10.518;2023-07-22T02:29:39;17.70;99.90
3925;DHT22;1977;52.274;10.518;2023-07-22T02:32:08;17.70;99.90
3925;DHT22;1977;52.274;10.518;2023-07-22T02:34:35;17.70;99.90
3925;DHT22;1977;52.274;10.518;2023-07-22T02:37:03;17.60;99.90
3925;DHT22;1977;52.274;10.518;2023-07-22T02:39:30;17.60;99.90
3925;DHT22;1977;52.274;10.518;2023-07-22T02:41:57;17.50;99.90
3925;DHT22;1977;52.274;10.518;2023-07-22T02:44:24;17.50;99.90
3925;DHT22;1977;52.274;10.518;2023-07-22T02:46:51;17.50;99.90
3925;DHT22;1977;52.274;10.518;2023-07-22T02:49:19;17.40;99.90
3925;DHT22;1977;52.274;10.518;2023-07-22T02:51:46;17.40;99.90
3925;DHT22;1977;52.274;10.518;2023-07-22T02:54:13;17.40;99.90
3925;DHT22;1977;52.274;10.518;2023-07-22T02:56:40;17.20;99.90
3925;DHT22;1977;52.274;10.518;2023-07-22T02:59:07;17.20;99.90
3925;DHT22;1977;52.274;10.518;2023-07-22T03:01:34;17.20;99.90
3925;DHT22;1977;52.274;10.518;2023-07-22T03:04:01;17.20;99.90
3925;DHT22;1977;52.274;10.518;2023-07-22T03:06:29;17.20;99.90
3925;DHT22;1977;52.274;10.518;2023-07-22T03:08:56;17.20;99.90
3925;DHT22;1977;52.274;10.518;2023-07-22T03:11:24;17.30;99.90
3925;DHT22;1977;52.274;10.518;2023-07-22T03:13:52;17.20;99.90
3925;DHT22;1977;52.274;10.518;2023-07-22T03:16:20;17.20;99.90
3925;DHT22;1977;52.274;10.518;2023-07-22T03:18:46;17.20;99.90
3925;DHT22;1977;52.274;10.518;2023-07-22T03:21:13;17.20;99.90
3925;DHT22;1977;52.274;10.518;2023-07-22T03:23:41;17.10;99.90
3925;DHT22;1977;52.274;10.518;2023-07-22T03:26:08;17.10;99.90
3925;DHT22;1977;52.274;10.518;2023-07-22T03:28:35;17.10;99.90
3925;DHT22;1977;52.274;10.518;2023-07-22T03:31:02;17.00;99.90
3925;DHT22;1977;52.274;10.518;2023-07-22T03:33:29;17.00;99.90
3925;DHT22;1977;52.274;10.518;2023-07-22T03:35:56;17.00;99.90
3925;DHT22;1977;52.274;10.518;2023-07-22T03:38:23;17.00;99.90
3925;DHT22;1977;52.274;10.518;2023-07-22T03:40:51;17.10;99.90
3925;DHT22;1977;52.274;10.518;2023-07-22T03:43:19;17.10;99.90
3925;DHT22;1977;52.274;10.518;2023-07-22T03:45:46;17.10;99.90
3925;DHT22;1977;52.274;10.518;2023-07-22T03:48:13;17.10;99.90
3925;DHT22;1977;52.274;10.518;2023-07-22T03:50:39;17.20;99.90
3925;DHT22;1977;52.274;10.518;2023-07-22T03:53:06;17.40;99.90
3925;DHT22;1977;52.274;10.518;2023-07-22T03:55:33;17.20;99.90
3925;DHT22;1977;52.274;10.518;2023-07-22T03:58:02;17.20;99.90
3925;DHT22;1977;52.274;10.518;2023-07-22T04:00:28;17.20;99.90
3925;DHT22;1977;52.274;10.518;2023-07-22T04:02:55;17.30;99.90
3925;DHT22;1977;52.274;10.518;2023-07-22T04:05:22;17.30;99.90
3925;DHT22;1977;52.274;10.518;2023-07-22T04:07:49;17.40;99.90
3925;DHT22;1977;52.274;10.518;2023-07-22T04:10:16;17.40;99.90
3925;DHT22;1977;52.274;10.518;2023-07-22T04:12:43;17.50;99.90
3925;DHT22;1977;52.274;10.518;2023-07-22T04:15:11;17.50;99.90
3925;DHT22;1977;52.274;10.518;2023-07-22T04:17:39;17.50;99.90
3925;DHT22;1977;52.274;10.518;2023-07-22T04:20:06;17.50;99.90
3925;DHT22;1977;52.274;10.518;2023-07-22T04:22:34;17.50;99.90
3925;DHT22;1977;52.274;10.518;2023-07-22T04:25:01;17.60;99.90
3925;DHT22;1977;52.274;10.518;2023-07-22T04:27:28;17.60;99.90
3925;DHT22;1977;52.274;10.518;2023-07-22T04:29:55;17.60;99.90
3925;DHT22;1977;52.274;10.518;2023-07-22T04:32:23;17.60;99.90
3925;DHT22;1977;52.274;10.518;2023-07-22T04:34:50;17.60;99.90
3925;DHT22;1977;52.274;10.518;2023-07-22T04:37:16;17.60;99.90
3925;DHT22;1977;52.274;10.518;2023-07-22T04:39:47;17.70;99.90
3925;DHT22;1977;52.274;10.518;2023-07-22T04:42:14;17.90;99.90
3925;DHT22;1977;52.274;10.518;2023-07-22T04:44:42;17.70;99.90
3925;DHT22;1977;52.274;10.518;2023-07-22T04:47:09;18.00;99.90
3925;DHT22;1977;52.274;10.518;2023-07-22T04:49:38;18.10;99.90
3925;DHT22;1977;52.274;10.518;2023-07-22T04:52:06;17.90;99.90
3925;DHT22;1977;52.274;10.518;2023-07-22T04:54:33;17.90;99.90
3925;DHT22;1977;52.274;10.518;2023-07-22T04:56:59;18.00;99.90
3925;DHT22;1977;52.274;10.518;2023-07-22T04:59:26;18.00;99.90
3925;DHT22;1977;52.274;10.518;2023-07-22T05:01:53;18.30;99.90
3925;DHT22;1977;52.274;10.518;2023-07-22T05:04:20;18.00;99.90
3925;DHT22;1977;52.274;10.518;2023-07-22T05:06:48;18.00;99.90
3925;DHT22;1977;52.274;10.518;2023-07-22T05:09:15;18.00;99.90
3925;DHT22;1977;52.274;10.518;2023-07-22T05:11:42;18.10;99.90
3925;DHT22;1977;52.274;10.518;2023-07-22T05:14:09;18.10;99.90
3925;DHT22;1977;52.274;10.518;2023-07-22T05:16:35;18.10;99.90
3925;DHT22;1977;52.274;10.518;2023-07-22T05:19:02;18.20;99.90
3925;DHT22;1977;52.274;10.518;2023-07-22T05:21:30;18.10;99.90
3925;DHT22;1977;52.274;10.518;2023-07-22T05:23:58;18.10;99.90
3925;DHT22;1977;52.274;10.518;2023-07-22T05:26:25;18.40;99.90
3925;DHT22;1977;52.274;10.518;2023-07-22T05:28:51;18.50;99.90
3925;DHT22;1977;52.274;10.518;2023-07-22T05:31:18;18.20;99.90
3925;DHT22;1977;52.274;10.518;2023-07-22T05:33:45;18.30;99.90
3925;DHT22;1977;52.274;10.518;2023-07-22T05:36:12;18.30;99.90
3925;DHT22;1977;52.274;10.518;2023-07-22T05:38:39;18.30;99.90
3925;DHT22;1977;52.274;10.518;2023-07-22T05:41:07;18.30;99.90
3925;DHT22;1977;52.274;10.518;2023-07-22T05:43:34;18.30;99.90
3925;DHT22;1977;52.274;10.518;2023-07-22T05:46:00;18.30;99.90
3925;DHT22;1977;52.274;10.518;2023-07-22T05:48:27;18.60;99.90
3925;DHT22;1977;52.274;10.518;2023-07-22T05:50:54;18.40;99.90
3925;DHT22;1977;52.274;10.518;2023-07-22T05:53:21;18.50;99.90
3925;DHT22;1977;52.274;10.518;2023-07-22T05:55:48;18.70;99.90
3925;DHT22;1977;52.274;10.518;2023-07-22T05:58:17;18.50;99.90
3925;DHT22;1977;52.274;10.518;2023-07-22T06:00:44;18.60;99.90
3925;DHT22;1977;52.274;10.518;2023-07-22T06:03:11;18.60;99.90
3925;DHT22;1977;52.274;10.518;2023-07-22T06:05:38;18.70;99.90
3925;DHT22;1977;52.274;10.518;2023-07-22T06:08:04;18.80;99.90
3925;DHT22;1977;52.274;10.518;2023-07-22T06:10:31;18.90;99.90
3925;DHT22;1977;52.274;10.518;2023-07-22T06:12:58;18.90;99.90
3925;DHT22;1977;52.274;10.518;2023-07-22T06:15:26;18.90;99.90
3925;DHT22;1977;52.274;10.518;2023-07-22T06:17:53;19.00;99.90
3925;DHT22;1977;52.274;10.518;2023-07-22T06:20:20;19.10;99.90
3925;DHT22;1977;52.274;10.518;2023-07-22T06:22:46;19.10;99.90
3925;DHT22;1977;52.274;10.518;2023-07-22T06:25:13;19.20;99.90
3925;DHT22;1977;52.274;10.518;2023-07-22T06:27:40;19.20;99.90
3925;DHT22;1977;52.274;10.518;2023-07-22T06:30:08;19.10;99.90
3925;DHT22;1977;52.274;10.518;2023-07-22T06:32:37;19.20;99.90
3925;DHT22;1977;52.274;10.518;2023-07-22T06:35:05;19.30;99.80
3925;DHT22;1977;52.274;10.518;2023-07-22T06:37:31;19.40;99.90
3925;DHT22;1977;52.274;10.518;2023-07-22T06:39:59;19.50;99.80
3925;DHT22;1977;52.274;10.518;2023-07-22T06:42:26;19.60;99.40
3925;DHT22;1977;52.274;10.518;2023-07-22T06:44:53;19.60;99.10
3925;DHT22;1977;52.274;10.518;2023-07-22T06:47:19;19.80;98.80
3925;DHT22;1977;52.274;10.518;2023-07-22T06:49:47;19.70;98.70
3925;DHT22;1977;52.274;10.518;2023-07-22T06:52:14;19.70;98.50
3925;DHT22;1977;52.274;10.518;2023-07-22T06:54:41;19.70;98.50
3925;DHT22;1977;52.274;10.518;2023-07-22T06:57:08;19.70;98.70
3925;DHT22;1977;52.274;10.518;2023-07-22T06:59:35;19.70;98.10
3925;DHT22;1977;52.274;10.518;2023-07-22T07:02:02;19.70;98.60
3925;DHT22;1977;52.274;10.518;2023-07-22T07:04:30;19.60;98.40
3925;DHT22;1977;52.274;10.518;2023-07-22T07:06:58;19.70;98.40
3925;DHT22;1977;52.274;10.518;2023-07-22T07:09:25;19.70;98.70
3925;DHT22;1977;52.274;10.518;2023-07-22T07:11:52;19.80;98.80
3925;DHT22;1977;52.274;10.518;2023-07-22T07:14:22;20.00;98.00
3925;DHT22;1977;52.274;10.518;2023-07-22T07:16:49;20.10;97.60
3925;DHT22;1977;52.274;10.518;2023-07-22T07:19:15;20.20;97.20
3925;DHT22;1977;52.274;10.518;2023-07-22T07:21:42;20.30;96.90
3925;DHT22;1977;52.274;10.518;2023-07-22T07:24:10;20.40;96.90
3925;DHT22;1977;52.274;10.518;2023-07-22T07:26:37;20.60;97.00
3925;DHT22;1977;52.274;10.518;2023-07-22T07:29:04;20.90;96.70
3925;DHT22;1977;52.274;10.518;2023-07-22T07:31:30;21.20;95.90
3925;DHT22;1977;52.274;10.518;2023-07-22T07:33:57;21.60;95.10
3925;DHT22;1977;52.274;10.518;2023-07-22T07:36:24;22.00;94.00
3925;DHT22;1977;52.274;10.518;2023-07-22T07:38:51;22.30;92.80
3925;DHT22;1977;52.274;10.518;2023-07-22T07:41:19;22.30;91.80
3925;DHT22;1977;52.274;10.518;2023-07-22T07:43:46;22.40;91.60
3925;DHT22;1977;52.274;10.518;2023-07-22T07:46:14;22.40;91.50
3925;DHT22;1977;52.274;10.518;2023-07-22T07:48:43;22.30;91.40
3925;DHT22;1977;52.274;10.518;2023-07-22T07:51:10;22.20;91.70
3925;DHT22;1977;52.274;10.518;2023-07-22T07:53:37;22.50;91.60
3925;DHT22;1977;52.274;10.518;2023-07-22T07:56:04;22.30;91.30
3925;DHT22;1977;52.274;10.518;2023-07-22T07:58:32;22.50;91.60
3925;DHT22;1977;52.274;10.518;2023-07-22T08:00:59;22.80;91.00
3925;DHT22;1977;52.274;10.518;2023-07-22T08:03:26;22.60;90.70
3925;DHT22;1977;52.274;10.518;2023-07-22T08:05:53;23.00;91.10
3925;DHT22;1977;52.274;10.518;2023-07-22T08:08:20;23.00;90.60
3925;DHT22;1977;52.274;10.518;2023-07-22T08:10:46;23.20;90.10
3925;DHT22;1977;52.274;10.518;2023-07-22T08:13:13;23.10;89.10
3925;DHT22;1977;52.274;10.518;2023-07-22T08:15:42;23.30;88.40
3925;DHT22;1977;52.274;10.518;2023-07-22T08:18:08;23.20;87.70
3925;DHT22;1977;52.274;10.518;2023-07-22T08:20:35;23.40;88.20
3925;DHT22;1977;52.274;10.518;2023-07-22T08:23:02;23.10;87.40
3925;DHT22;1977;52.274;10.518;2023-07-22T08:25:28;23.20;88.30
3925;DHT22;1977;52.274;10.518;2023-07-22T08:27:55;23.70;88.00
3925;DHT22;1977;52.274;10.518;2023-07-22T08:30:22;23.50;87.00
3925;DHT22;1977;52.274;10.518;2023-07-22T08:32:50;23.40;86.00
3925;DHT22;1977;52.274;10.518;2023-07-22T08:35:17;23.40;86.30
3925;DHT22;1977;52.274;10.518;2023-07-22T08:37:44;23.50;86.50
3925;DHT22;1977;52.274;10.518;2023-07-22T08:40:12;23.50;86.80
3925;DHT22;1977;52.274;10.518;2023-07-22T08:42:40;23.50;85.70
3925;DHT22;1977;52.274;10.518;2023-07-22T08:45:09;23.20;84.40
3925;DHT22;1977;52.274;10.518;2023-07-22T08:47:39;23.00;85.30
3925;DHT22;1977;52.274;10.518;2023-07-22T08:50:11;23.00;85.80
3925;DHT22;1977;52.274;10.518;2023-07-22T08:52:40;22.80;86.10
3925;DHT22;1977;52.274;10.518;2023-07-22T08:55:07;22.80;85.70
3925;DHT22;1977;52.274;10.518;2023-07-22T08:57:36;22.70;86.10
3925;DHT22;1977;52.274;10.518;2023-07-22T09:00:04;22.70;86.20
3925;DHT22;1977;52.274;10.518;2023-07-22T09:02:33;22.70;85.70
3925;DHT22;1977;52.274;10.518;2023-07-22T09:05:00;22.90;85.50
3925;DHT22;1977;52.274;10.518;2023-07-22T09:07:28;22.70;85.70
3925;DHT22;1977;52.274;10.518;2023-07-22T09:09:57;22.50;86.10
3925;DHT22;1977;52.274;10.518;2023-07-22T09:12:24;22.40;86.40
3925;DHT22;1977;52.274;10.518;2023-07-22T09:14:52;22.20;86.70
3925;DHT22;1977;52.274;10.518;2023-07-22T09:17:19;22.50;88.10
3925;DHT22;1977;52.274;10.518;2023-07-22T09:19:46;22.40;88.40
3925;DHT22;1977;52.274;10.518;2023-07-22T09:22:12;22.90;88.20
3925;DHT22;1977;52.274;10.518;2023-07-22T09:24:40;23.50;87.00
3925;DHT22;1977;52.274;10.518;2023-07-22T09:27:07;24.20;85.60
3925;DHT22;1977;52.274;10.518;2023-07-22T09:29:35;24.90;82.30
3925;DHT22;1977;52.274;10.518;2023-07-22T09:32:03;24.70;81.20
3925;DHT22;1977;52.274;10.518;2023-07-22T09:34:30;24.60;81.90
3925;DHT22;1977;52.274;10.518;2023-07-22T09:36:58;24.90;81.50
3925;DHT22;1977;52.274;10.518;2023-07-22T09:39:26;25.00;80.80
3925;DHT22;1977;52.274;10.518;2023-07-22T09:41:54;25.30;79.50
3925;DHT22;1977;52.274;10.518;2023-07-22T09:44:21;25.30;79.30
3925;DHT22;1977;52.274;10.518;2023-07-22T09:46:49;25.20;79.70
3925;DHT22;1977;52.274;10.518;2023-07-22T09:49:16;25.30;80.30
3925;DHT22;1977;52.274;10.518;2023-07-22T09:51:44;25.40;79.70
3925;DHT22;1977;52.274;10.518;2023-07-22T09:54:11;25.10;78.40
3925;DHT22;1977;52.274;10.518;2023-07-22T09:56:45;24.80;78.70
3925;DHT22;1977;52.274;10.518;2023-07-22T09:59:14;24.40;79.10
3925;DHT22;1977;52.274;10.518;2023-07-22T10:01:43;24.00;79.90
3925;DHT22;1977;52.274;10.518;2023-07-22T10:04:12;23.60;80.70
3925;DHT22;1977;52.274;10.518;2023-07-22T10:06:43;23.50;82.40
3925;DHT22;1977;52.274;10.518;2023-07-22T10:09:11;23.70;83.00
3925;DHT22;1977;52.274;10.518;2023-07-22T10:11:39;23.90;82.70
3925;DHT22;1977;52.274;10.518;2023-07-22T10:14:06;24.20;82.70
3925;DHT22;1977;52.274;10.518;2023-07-22T10:16:34;24.60;81.30
3925;DHT22;1977;52.274;10.518;2023-07-22T10:19:02;24.70;80.50
3925;DHT22;1977;52.274;10.518;2023-07-22T10:21:31;24.60;81.50
3925;DHT22;1977;52.274;10.518;2023-07-22T10:24:00;24.40;81.20
3925;DHT22;1977;52.274;10.518;2023-07-22T10:26:28;24.40;81.60
3925;DHT22;1977;52.274;10.518;2023-07-22T10:28:55;24.30;81.10
3925;DHT22;1977;52.274;10.518;2023-07-22T10:31:23;24.30;81.40
3925;DHT22;1977;52.274;10.518;2023-07-22T10:33:51;24.30;80.50
3925;DHT22;1977;52.274;10.518;2023-07-22T10:36:18;24.10;80.80
3925;DHT22;1977;52.274;10.518;2023-07-22T10:38:55;24.00;81.00
3925;DHT22;1977;52.274;10.518;2023-07-22T10:41:22;23.80;80.60
3925;DHT22;1977;52.274;10.518;2023-07-22T10:43:54;23.80;82.10
3925;DHT22;1977;52.274;10.518;2023-07-22T10:46:32;23.90;80.80
3925;DHT22;1977;52.274;10.518;2023-07-22T10:49:10;23.90;81.30
3925;DHT22;1977;52.274;10.518;2023-07-22T10:51:38;23.80;82.00
3925;DHT22;1977;52.274;10.518;2023-07-22T10:54:11;23.80;82.10
3925;DHT22;1977;52.274;10.518;2023-07-22T10:56:38;23.40;82.80
3925;DHT22;1977;52.274;10.518;2023-07-22T10:59:04;23.30;82.10
3925;DHT22;1977;52.274;10.518;2023-07-22T11:01:33;23.20;82.80
3925;DHT22;1977;52.274;10.518;2023-07-22T11:04:21;23.20;83.30
3925;DHT22;1977;52.274;10.518;2023-07-22T11:06:54;23.20;83.20
3925;DHT22;1977;52.274;10.518;2023-07-22T11:09:38;23.20;83.00
3925;DHT22;1977;52.274;10.518;2023-07-22T11:12:07;23.10;83.20
3925;DHT22;1977;52.274;10.518;2023-07-22T11:14:38;22.90;82.20
3925;DHT22;1977;52.274;10.518;2023-07-22T11:17:07;23.00;82.50
3925;DHT22;1977;52.274;10.518;2023-07-22T11:19:35;22.80;82.90
3925;DHT22;1977;52.274;10.518;2023-07-22T11:22:03;22.80;84.20
3925;DHT22;1977;52.274;10.518;2023-07-22T11:24:32;22.90;85.00
3925;DHT22;1977;52.274;10.518;2023-07-22T11:26:59;23.00;82.50
3925;DHT22;1977;52.274;10.518;2023-07-22T11:29:26;23.10;82.00
3925;DHT22;1977;52.274;10.518;2023-07-22T11:31:52;23.10;82.70
3925;DHT22;1977;52.274;10.518;2023-07-22T11:34:21;23.20;80.20
3925;DHT22;1977;52.274;10.518;2023-07-22T11:36:52;23.20;80.20
3925;DHT22;1977;52.274;10.518;2023-07-22T11:39:21;23.30;80.10
3925;DHT22;1977;52.274;10.518;2023-07-22T11:41:49;23.30;80.20
3925;DHT22;1977;52.274;10.518;2023-07-22T11:44:17;23.40;78.80
3925;DHT22;1977;52.274;10.518;2023-07-22T11:46:52;23.40;76.80
3925;DHT22;1977;52.274;10.518;2023-07-22T11:49:26;23.50;77.30
3925;DHT22;1977;52.274;10.518;2023-07-22T11:51:59;23.50;77.30
3925;DHT22;1977;52.274;10.518;2023-07-22T11:54:27;23.80;78.80
3925;DHT22;1977;52.274;10.518;2023-07-22T11:56:54;23.70;76.20
3925;DHT22;1977;52.274;10.518;2023-07-22T11:59:36;23.80;76.30
3925;DHT22;1977;52.274;10.518;2023-07-22T12:02:03;23.90;76.40
3925;DHT22;1977;52.274;10.518;2023-07-22T12:04:31;23.90;76.30
3925;DHT22;1977;52.274;10.518;2023-07-22T12:06:59;23.90;75.20
3925;DHT22;1977;52.274;10.518;2023-07-22T12:09:26;23.90;76.10
3925;DHT22;1977;52.274;10.518;2023-07-22T12:11:57;23.80;76.30
3925;DHT22;1977;52.274;10.518;2023-07-22T12:14:24;23.70;76.20
3925;DHT22;1977;52.274;10.518;2023-07-22T12:16:55;23.60;75.00
3925;DHT22;1977;52.274;10.518;2023-07-22T12:19:23;23.60;75.50
3925;DHT22;1977;52.274;10.518;2023-07-22T12:21:50;23.40;76.40
3925;DHT22;1977;52.274;10.518;2023-07-22T12:24:18;23.30;76.40
3925;DHT22;1977;52.274;10.518;2023-07-22T12:26:45;23.40;76.60
3925;DHT22;1977;52.274;10.518;2023-07-22T12:29:11;23.40;77.40
3925;DHT22;1977;52.274;10.518;2023-07-22T12:31:38;23.40;77.40
3925;DHT22;1977;52.274;10.518;2023-07-22T12:34:05;23.40;78.00
3925;DHT22;1977;52.274;10.518;2023-07-22T12:36:32;23.50;77.60
3925;DHT22;1977;52.274;10.518;2023-07-22T12:38:58;23.60;77.60
3925;DHT22;1977;52.274;10.518;2023-07-22T12:41:27;23.80;76.60
3925;DHT22;1977;52.274;10.518;2023-07-22T12:43:53;23.60;76.80
3925;DHT22;1977;52.274;10.518;2023-07-22T12:46:20;23.70;76.90
3925;DHT22;1977;52.274;10.518;2023-07-22T12:48:47;23.60;76.00
3925;DHT22;1977;52.274;10.518;2023-07-22T12:51:14;24.00;76.30
3925;DHT22;1977;52.274;10.518;2023-07-22T12:53:41;23.80;75.50
3925;DHT22;1977;52.274;10.518;2023-07-22T12:56:08;23.80;73.50
3925;DHT22;1977;52.274;10.518;2023-07-22T12:58:36;23.80;74.50
3925;DHT22;1977;52.274;10.518;2023-07-22T13:01:02;24.00;74.50
3925;DHT22;1977;52.274;10.518;2023-07-22T13:03:29;23.80;72.80
3925;DHT22;1977;52.274;10.518;2023-07-22T13:05:56;23.60;72.40
3925;DHT22;1977;52.274;10.518;2023-07-22T13:08:23;23.60;73.00
3925;DHT22;1977;52.274;10.518;2023-07-22T13:10:49;23.60;72.40
3925;DHT22;1977;52.274;10.518;2023-07-22T13:13:16;23.60;72.80
3925;DHT22;1977;52.274;10.518;2023-07-22T13:15:44;23.70;71.20
3925;DHT22;1977;52.274;10.518;2023-07-22T13:18:11;23.80;70.00
3925;DHT22;1977;52.274;10.518;2023-07-22T13:20:39;23.80;71.30
3925;DHT22;1977;52.274;10.518;2023-07-22T13:23:06;23.90;73.10
3925;DHT22;1977;52.274;10.518;2023-07-22T13:25:35;24.00;73.80
3925;DHT22;1977;52.274;10.518;2023-07-22T13:28:02;23.90;73.60
3925;DHT22;1977;52.274;10.518;2023-07-22T13:30:29;23.90;73.60
3925;DHT22;1977;52.274;10.518;2023-07-22T13:32:57;23.80;74.00
3925;DHT22;1977;52.274;10.518;2023-07-22T13:35:24;23.60;74.60
3925;DHT22;1977;52.274;10.518;2023-07-22T13:37:50;23.60;75.30
3925;DHT22;1977;52.274;10.518;2023-07-22T13:40:17;23.30;75.90
3925;DHT22;1977;52.274;10.518;2023-07-22T13:42:44;23.20;76.30
3925;DHT22;1977;52.274;10.518;2023-07-22T13:45:12;23.20;76.60
3925;DHT22;1977;52.274;10.518;2023-07-22T13:47:38;23.10;77.20
3925;DHT22;1977;52.274;10.518;2023-07-22T13:50:07;23.10;76.60
3925;DHT22;1977;52.274;10.518;2023-07-22T13:52:34;23.00;76.70
3925;DHT22;1977;52.274;10.518;2023-07-22T13:55:00;23.00;77.60
3925;DHT22;1977;52.274;10.518;2023-07-22T13:57:28;23.00;77.60
3925;DHT22;1977;52.274;10.518;2023-07-22T13:59:54;23.00;77.30
3925;DHT22;1977;52.274;10.518;2023-07-22T14:02:21;23.00;77.30
3925;DHT22;1977;52.274;10.518;2023-07-22T14:04:48;23.10;77.60
3925;DHT22;1977;52.274;10.518;2023-07-22T14:07:16;23.20;77.30
3925;DHT22;1977;52.274;10.518;2023-07-22T14:09:43;23.10;76.00
3925;DHT22;1977;52.274;10.518;2023-07-22T14:12:10;23.10;75.00
3925;DHT22;1977;52.274;10.518;2023-07-22T14:14:37;23.20;74.80
3925;DHT22;1977;52.274;10.518;2023-07-22T14:17:04;23.20;74.80
3925;DHT22;1977;52.274;10.518;2023-07-22T14:19:31;23.20;75.30
3925;DHT22;1977;52.274;10.518;2023-07-22T14:21:58;23.30;77.60
3925;DHT22;1977;52.274;10.518;2023-07-22T14:24:26;23.30;77.40
3925;DHT22;1977;52.274;10.518;2023-07-22T14:26:53;23.30;78.00
3925;DHT22;1977;52.274;10.518;2023-07-22T14:29:20;23.40;77.40
3925;DHT22;1977;52.274;10.518;2023-07-22T14:31:47;23.50;76.80
3925;DHT22;1977;52.274;10.518;2023-07-22T14:34:14;23.50;76.80
3925;DHT22;1977;52.274;10.518;2023-07-22T14:36:41;23.60;77.00
3925;DHT22;1977;52.274;10.518;2023-07-22T14:39:09;23.60;75.50
3925;DHT22;1977;52.274;10.518;2023-07-22T14:41:37;23.60;76.20
3925;DHT22;1977;52.274;10.518;2023-07-22T14:44:04;23.60;75.90
3925;DHT22;1977;52.274;10.518;2023-07-22T14:46:31;23.70;75.10
3925;DHT22;1977;52.274;10.518;2023-07-22T14:48:57;23.70;74.80
3925;DHT22;1977;52.274;10.518;2023-07-22T14:51:24;23.70;74.20
3925;DHT22;1977;52.274;10.518;2023-07-22T14:53:51;23.70;74.20
3925;DHT22;1977;52.274;10.518;2023-07-22T14:56:17;23.60;74.40
3925;DHT22;1977;52.274;10.518;2023-07-22T14:58:46;23.60;75.20
3925;DHT22;1977;52.274;10.518;2023-07-22T15:01:14;23.60;74.70
3925;DHT22;1977;52.274;10.518;2023-07-22T15:03:41;23.60;74.20
3925;DHT22;1977;52.274;10.518;2023-07-22T15:06:08;23.60;74.90
3925;DHT22;1977;52.274;10.518;2023-07-22T15:08:34;23.60;74.90
3925;DHT22;1977;52.274;10.518;2023-07-22T15:11:01;23.60;73.60
3925;DHT22;1977;52.274;10.518;2023-07-22T15:13:28;23.60;73.40
3925;DHT22;1977;52.274;10.518;2023-07-22T15:15:56;23.60;73.70
3925;DHT22;1977;52.274;10.518;2023-07-22T15:18:23;23.60;72.70
3925;DHT22;1977;52.274;10.518;2023-07-22T15:20:50;23.50;73.30
3925;DHT22;1977;52.274;10.518;2023-07-22T15:23:17;23.60;73.90
3925;DHT22;1977;52.274;10.518;2023-07-22T15:25:44;23.70;74.60
3925;DHT22;1977;52.274;10.518;2023-07-22T15:28:11;23.70;73.00
3925;DHT22;1977;52.274;10.518;2023-07-22T15:30:38;23.70;72.10
3925;DHT22;1977;52.274;10.518;2023-07-22T15:33:06;23.70;71.60
3925;DHT22;1977;52.274;10.518;2023-07-22T15:35:33;23.70;71.30
3925;DHT22;1977;52.274;10.518;2023-07-22T15:37:59;23.70;71.80
3925;DHT22;1977;52.274;10.518;2023-07-22T15:40:26;23.80;72.70
3925;DHT22;1977;52.274;10.518;2023-07-22T15:42:54;23.80;72.90
3925;DHT22;1977;52.274;10.518;2023-07-22T15:45:21;23.80;72.50
3925;DHT22;1977;52.274;10.518;2023-07-22T15:47:48;24.00;73.40